Terminal Aerodrome Forecast
Issued by NWS Shreveport, LA

Home | Current Version | Previous Version | Text Only | Print | Product List | Glossary On
Versions: 1 2 3 4 5 6 7 8 9 10 11 12
000
FTUS44 KSHV 282300
TAFGGG
TAF
KGGG 282330Z 2900/2924 19008KT P6SM BKN250
      TEMPO 2900/2904 19012G18KT
     FM291200 22008KT P6SM SCT100
     FM291700 33012KT P6SM SCT250=

USA.gov is the U.S. government's official web portal to all federal, state and local government web resources and services.